sensor_id;sensor_type;location;lat;lon;timestamp;P1;durP1;ratioP1;P2;durP2;ratioP2
54247;SDS011;40161;39.768;2.722;2022-09-09T00:00:37;5.90;;;2.00;;
54247;SDS011;40161;39.768;2.722;2022-09-09T00:06:05;6.30;;;2.00;;
54247;SDS011;40161;39.768;2.722;2022-09-09T00:08:44;5.35;;;2.00;;
54247;SDS011;40161;39.768;2.722;2022-09-09T00:11:43;5.35;;;1.80;;
54247;SDS011;40161;39.768;2.722;2022-09-09T00:14:20;4.05;;;1.50;;
54247;SDS011;40161;39.768;2.722;2022-09-09T00:16:58;3.15;;;1.50;;
54247;SDS011;40161;39.768;2.722;2022-09-09T00:19:32;5.72;;;1.90;;
54247;SDS011;40161;39.768;2.722;2022-09-09T00:22:19;4.05;;;1.80;;
54247;SDS011;40161;39.768;2.722;2022-09-09T00:24:51;3.63;;;1.60;;
54247;SDS011;40161;39.768;2.722;2022-09-09T00:27:24;4.50;;;1.50;;
54247;SDS011;40161;39.768;2.722;2022-09-09T00:29:53;5.13;;;1.58;;
54247;SDS011;40161;39.768;2.722;2022-09-09T00:32:24;3.13;;;1.50;;
54247;SDS011;40161;39.768;2.722;2022-09-09T00:34:55;4.40;;;1.40;;
54247;SDS011;40161;39.768;2.722;2022-09-09T00:37:25;4.25;;;1.55;;
54247;SDS011;40161;39.768;2.722;2022-09-09T00:39:51;3.92;;;1.30;;
54247;SDS011;40161;39.768;2.722;2022-09-09T00:42:26;3.50;;;1.50;;
54247;SDS011;40161;39.768;2.722;2022-09-09T00:45:35;5.30;;;1.40;;
54247;SDS011;40161;39.768;2.722;2022-09-09T00:48:30;3.17;;;1.40;;
54247;SDS011;40161;39.768;2.722;2022-09-09T00:51:07;5.93;;;1.70;;
54247;SDS011;40161;39.768;2.722;2022-09-09T00:57:13;3.30;;;1.60;;
54247;SDS011;40161;39.768;2.722;2022-09-09T01:02:39;3.83;;;1.58;;
54247;SDS011;40161;39.768;2.722;2022-09-09T01:05:20;4.55;;;1.73;;
54247;SDS011;40161;39.768;2.722;2022-09-09T01:07:47;5.07;;;1.77;;
54247;SDS011;40161;39.768;2.722;2022-09-09T01:13:13;4.25;;;1.40;;
54247;SDS011;40161;39.768;2.722;2022-09-09T01:15:44;2.47;;;1.20;;
54247;SDS011;40161;39.768;2.722;2022-09-09T01:18:12;3.53;;;1.40;;
54247;SDS011;40161;39.768;2.722;2022-09-09T01:21:25;4.10;;;1.48;;
54247;SDS011;40161;39.768;2.722;2022-09-09T01:26:52;5.18;;;1.33;;
54247;SDS011;40161;39.768;2.722;2022-09-09T01:29:24;3.38;;;1.23;;
54247;SDS011;40161;39.768;2.722;2022-09-09T01:31:54;3.85;;;1.17;;
54247;SDS011;40161;39.768;2.722;2022-09-09T01:34:22;3.10;;;1.30;;
54247;SDS011;40161;39.768;2.722;2022-09-09T01:37:01;2.60;;;1.20;;
54247;SDS011;40161;39.768;2.722;2022-09-09T01:39:32;2.78;;;1.20;;
54247;SDS011;40161;39.768;2.722;2022-09-09T01:42:00;3.40;;;1.10;;
54247;SDS011;40161;39.768;2.722;2022-09-09T01:44:26;5.13;;;1.25;;
54247;SDS011;40161;39.768;2.722;2022-09-09T01:46:53;3.58;;;1.25;;
54247;SDS011;40161;39.768;2.722;2022-09-09T01:49:18;3.30;;;1.20;;
54247;SDS011;40161;39.768;2.722;2022-09-09T01:51:44;5.32;;;1.10;;
54247;SDS011;40161;39.768;2.722;2022-09-09T01:54:13;4.35;;;1.27;;
54247;SDS011;40161;39.768;2.722;2022-09-09T02:02:11;4.10;;;1.10;;
54247;SDS011;40161;39.768;2.722;2022-09-09T02:04:47;3.47;;;1.13;;
54247;SDS011;40161;39.768;2.722;2022-09-09T02:07:28;4.63;;;1.30;;
54247;SDS011;40161;39.768;2.722;2022-09-09T02:10:01;2.80;;;1.10;;
54247;SDS011;40161;39.768;2.722;2022-09-09T02:12:36;2.65;;;1.20;;
54247;SDS011;40161;39.768;2.722;2022-09-09T02:15:30;3.17;;;1.13;;
54247;SDS011;40161;39.768;2.722;2022-09-09T02:17:57;4.10;;;1.10;;
54247;SDS011;40161;39.768;2.722;2022-09-09T02:20:25;2.40;;;1.08;;
54247;SDS011;40161;39.768;2.722;2022-09-09T02:22:52;4.45;;;1.33;;
54247;SDS011;40161;39.768;2.722;2022-09-09T02:25:21;4.47;;;1.13;;
54247;SDS011;40161;39.768;2.722;2022-09-09T02:27:49;3.00;;;1.20;;
54247;SDS011;40161;39.768;2.722;2022-09-09T02:30:16;3.20;;;1.13;;
54247;SDS011;40161;39.768;2.722;2022-09-09T02:32:43;3.78;;;1.08;;
54247;SDS011;40161;39.768;2.722;2022-09-09T02:35:15;2.95;;;1.00;;
54247;SDS011;40161;39.768;2.722;2022-09-09T02:37:45;2.92;;;1.13;;
54247;SDS011;40161;39.768;2.722;2022-09-09T02:40:11;2.58;;;1.20;;
54247;SDS011;40161;39.768;2.722;2022-09-09T02:42:40;3.22;;;1.10;;
54247;SDS011;40161;39.768;2.722;2022-09-09T02:45:09;2.42;;;1.20;;
54247;SDS011;40161;39.768;2.722;2022-09-09T02:47:38;3.58;;;1.20;;
54247;SDS011;40161;39.768;2.722;2022-09-09T02:50:23;3.80;;;1.20;;
54247;SDS011;40161;39.768;2.722;2022-09-09T02:53:11;3.28;;;1.40;;
54247;SDS011;40161;39.768;2.722;2022-09-09T02:58:27;2.00;;;1.10;;
54247;SDS011;40161;39.768;2.722;2022-09-09T03:00:53;5.60;;;1.50;;
54247;SDS011;40161;39.768;2.722;2022-09-09T03:03:19;4.53;;;1.20;;
54247;SDS011;40161;39.768;2.722;2022-09-09T03:05:45;3.92;;;1.45;;
54247;SDS011;40161;39.768;2.722;2022-09-09T03:08:12;3.60;;;1.20;;
54247;SDS011;40161;39.768;2.722;2022-09-09T03:10:38;5.13;;;1.20;;
54247;SDS011;40161;39.768;2.722;2022-09-09T03:13:04;3.55;;;1.20;;
54247;SDS011;40161;39.768;2.722;2022-09-09T03:15:33;2.10;;;1.00;;
54247;SDS011;40161;39.768;2.722;2022-09-09T03:18:00;3.28;;;1.15;;
54247;SDS011;40161;39.768;2.722;2022-09-09T03:20:27;3.08;;;0.90;;
54247;SDS011;40161;39.768;2.722;2022-09-09T03:22:54;3.78;;;1.05;;
54247;SDS011;40161;39.768;2.722;2022-09-09T03:25:20;4.20;;;1.15;;
54247;SDS011;40161;39.768;2.722;2022-09-09T03:27:49;3.30;;;1.20;;
54247;SDS011;40161;39.768;2.722;2022-09-09T03:30:14;2.38;;;1.02;;
54247;SDS011;40161;39.768;2.722;2022-09-09T03:32:40;3.25;;;0.90;;
54247;SDS011;40161;39.768;2.722;2022-09-09T03:35:06;3.55;;;0.90;;
54247;SDS011;40161;39.768;2.722;2022-09-09T03:37:32;2.17;;;1.10;;
54247;SDS011;40161;39.768;2.722;2022-09-09T03:39:57;4.30;;;1.50;;
54247;SDS011;40161;39.768;2.722;2022-09-09T03:42:24;3.95;;;1.15;;
54247;SDS011;40161;39.768;2.722;2022-09-09T03:44:50;4.32;;;1.20;;
54247;SDS011;40161;39.768;2.722;2022-09-09T03:47:19;3.95;;;1.10;;
54247;SDS011;40161;39.768;2.722;2022-09-09T03:49:46;3.03;;;1.20;;
54247;SDS011;40161;39.768;2.722;2022-09-09T03:52:13;4.13;;;1.20;;
54247;SDS011;40161;39.768;2.722;2022-09-09T03:54:39;3.05;;;1.08;;
54247;SDS011;40161;39.768;2.722;2022-09-09T03:57:06;3.53;;;1.10;;
54247;SDS011;40161;39.768;2.722;2022-09-09T03:59:31;4.05;;;1.40;;
54247;SDS011;40161;39.768;2.722;2022-09-09T04:01:57;2.00;;;1.10;;
54247;SDS011;40161;39.768;2.722;2022-09-09T04:04:24;4.03;;;1.30;;
54247;SDS011;40161;39.768;2.722;2022-09-09T04:06:51;2.78;;;1.20;;
54247;SDS011;40161;39.768;2.722;2022-09-09T04:09:17;5.97;;;1.33;;
54247;SDS011;40161;39.768;2.722;2022-09-09T04:11:42;3.42;;;1.15;;
54247;SDS011;40161;39.768;2.722;2022-09-09T04:14:08;1.98;;;1.05;;
54247;SDS011;40161;39.768;2.722;2022-09-09T04:16:34;3.90;;;1.77;;
54247;SDS011;40161;39.768;2.722;2022-09-09T04:19:01;2.25;;;1.23;;
54247;SDS011;40161;39.768;2.722;2022-09-09T04:21:29;5.57;;;1.30;;
54247;SDS011;40161;39.768;2.722;2022-09-09T04:23:55;6.80;;;1.50;;
54247;SDS011;40161;39.768;2.722;2022-09-09T04:26:20;3.00;;;1.30;;
54247;SDS011;40161;39.768;2.722;2022-09-09T04:28:47;3.58;;;1.30;;
54247;SDS011;40161;39.768;2.722;2022-09-09T04:31:15;3.60;;;1.50;;
54247;SDS011;40161;39.768;2.722;2022-09-09T04:33:43;4.40;;;1.40;;
54247;SDS011;40161;39.768;2.722;2022-09-09T04:36:09;3.17;;;1.48;;
54247;SDS011;40161;39.768;2.722;2022-09-09T04:38:35;3.40;;;1.35;;
54247;SDS011;40161;39.768;2.722;2022-09-09T04:41:00;3.92;;;1.60;;
54247;SDS011;40161;39.768;2.722;2022-09-09T04:43:26;4.28;;;1.33;;
54247;SDS011;40161;39.768;2.722;2022-09-09T04:45:52;3.95;;;1.50;;
54247;SDS011;40161;39.768;2.722;2022-09-09T04:48:18;3.40;;;1.30;;
54247;SDS011;40161;39.768;2.722;2022-09-09T04:50:53;4.38;;;1.58;;
54247;SDS011;40161;39.768;2.722;2022-09-09T04:53:19;4.55;;;1.50;;
54247;SDS011;40161;39.768;2.722;2022-09-09T04:55:45;5.60;;;1.75;;
54247;SDS011;40161;39.768;2.722;2022-09-09T04:58:11;4.40;;;1.65;;
54247;SDS011;40161;39.768;2.722;2022-09-09T05:00:37;4.97;;;1.50;;
54247;SDS011;40161;39.768;2.722;2022-09-09T05:03:05;3.30;;;1.50;;
54247;SDS011;40161;39.768;2.722;2022-09-09T05:05:32;5.13;;;1.60;;
54247;SDS011;40161;39.768;2.722;2022-09-09T05:08:02;3.35;;;1.40;;
54247;SDS011;40161;39.768;2.722;2022-09-09T05:10:31;4.50;;;1.58;;
54247;SDS011;40161;39.768;2.722;2022-09-09T05:12:58;4.88;;;1.75;;
54247;SDS011;40161;39.768;2.722;2022-09-09T05:15:23;6.35;;;2.00;;
54247;SDS011;40161;39.768;2.722;2022-09-09T05:17:49;4.25;;;1.67;;
54247;SDS011;40161;39.768;2.722;2022-09-09T05:20:16;3.70;;;1.40;;
54247;SDS011;40161;39.768;2.722;2022-09-09T05:22:41;3.75;;;1.33;;
54247;SDS011;40161;39.768;2.722;2022-09-09T05:25:07;9.48;;;2.10;;
54247;SDS011;40161;39.768;2.722;2022-09-09T05:27:33;7.95;;;1.50;;
54247;SDS011;40161;39.768;2.722;2022-09-09T05:29:59;5.38;;;1.63;;
54247;SDS011;40161;39.768;2.722;2022-09-09T05:32:25;6.13;;;1.67;;
54247;SDS011;40161;39.768;2.722;2022-09-09T05:34:50;5.85;;;1.75;;
54247;SDS011;40161;39.768;2.722;2022-09-09T05:37:17;7.15;;;1.80;;
54247;SDS011;40161;39.768;2.722;2022-09-09T05:39:43;5.32;;;2.50;;
54247;SDS011;40161;39.768;2.722;2022-09-09T05:42:09;4.82;;;1.70;;
54247;SDS011;40161;39.768;2.722;2022-09-09T05:44:35;3.92;;;1.60;;
54247;SDS011;40161;39.768;2.722;2022-09-09T05:47:00;6.93;;;1.80;;
54247;SDS011;40161;39.768;2.722;2022-09-09T05:49:26;17.23;;;4.90;;
54247;SDS011;40161;39.768;2.722;2022-09-09T05:51:52;12.20;;;3.40;;
54247;SDS011;40161;39.768;2.722;2022-09-09T05:54:18;8.50;;;2.83;;
54247;SDS011;40161;39.768;2.722;2022-09-09T05:56:43;10.52;;;4.50;;
54247;SDS011;40161;39.768;2.722;2022-09-09T05:59:09;9.57;;;3.80;;
54247;SDS011;40161;39.768;2.722;2022-09-09T06:01:36;14.75;;;5.97;;
54247;SDS011;40161;39.768;2.722;2022-09-09T06:04:05;15.55;;;8.93;;
54247;SDS011;40161;39.768;2.722;2022-09-09T06:06:33;28.77;;;12.10;;
54247;SDS011;40161;39.768;2.722;2022-09-09T06:12:26;18.55;;;8.18;;
54247;SDS011;40161;39.768;2.722;2022-09-09T06:14:52;13.45;;;5.70;;
54247;SDS011;40161;39.768;2.722;2022-09-09T06:17:19;11.43;;;4.65;;
54247;SDS011;40161;39.768;2.722;2022-09-09T06:23:06;10.00;;;3.15;;
54247;SDS011;40161;39.768;2.722;2022-09-09T06:25:32;8.02;;;2.60;;
54247;SDS011;40161;39.768;2.722;2022-09-09T06:27:59;7.35;;;2.72;;
54247;SDS011;40161;39.768;2.722;2022-09-09T06:30:24;7.18;;;2.80;;
54247;SDS011;40161;39.768;2.722;2022-09-09T06:32:50;8.73;;;3.13;;
54247;SDS011;40161;39.768;2.722;2022-09-09T06:38:37;8.23;;;3.80;;
54247;SDS011;40161;39.768;2.722;2022-09-09T06:41:03;9.57;;;3.33;;
54247;SDS011;40161;39.768;2.722;2022-09-09T06:43:30;8.00;;;3.53;;
54247;SDS011;40161;39.768;2.722;2022-09-09T06:45:58;6.88;;;3.08;;
54247;SDS011;40161;39.768;2.722;2022-09-09T06:48:25;8.70;;;3.38;;
54247;SDS011;40161;39.768;2.722;2022-09-09T06:51:00;7.53;;;3.03;;
54247;SDS011;40161;39.768;2.722;2022-09-09T06:53:46;10.90;;;3.03;;
54247;SDS011;40161;39.768;2.722;2022-09-09T06:56:20;6.57;;;3.08;;
54247;SDS011;40161;39.768;2.722;2022-09-09T06:58:51;11.88;;;3.33;;
54247;SDS011;40161;39.768;2.722;2022-09-09T07:01:18;10.55;;;3.20;;
54247;SDS011;40161;39.768;2.722;2022-09-09T07:03:49;8.52;;;2.75;;
54247;SDS011;40161;39.768;2.722;2022-09-09T07:06:26;9.18;;;3.13;;
54247;SDS011;40161;39.768;2.722;2022-09-09T07:08:57;10.73;;;2.85;;
54247;SDS011;40161;39.768;2.722;2022-09-09T07:11:26;8.75;;;2.90;;
54247;SDS011;40161;39.768;2.722;2022-09-09T07:13:53;8.40;;;3.20;;
54247;SDS011;40161;39.768;2.722;2022-09-09T07:16:20;7.15;;;2.65;;
54247;SDS011;40161;39.768;2.722;2022-09-09T07:18:47;9.57;;;2.38;;
54247;SDS011;40161;39.768;2.722;2022-09-09T07:21:15;6.43;;;2.20;;
54247;SDS011;40161;39.768;2.722;2022-09-09T07:23:41;7.70;;;2.40;;
54247;SDS011;40161;39.768;2.722;2022-09-09T07:26:11;6.28;;;2.28;;
54247;SDS011;40161;39.768;2.722;2022-09-09T07:28:41;6.53;;;2.20;;
54247;SDS011;40161;39.768;2.722;2022-09-09T07:31:12;5.20;;;1.95;;
54247;SDS011;40161;39.768;2.722;2022-09-09T07:33:40;6.63;;;2.15;;
54247;SDS011;40161;39.768;2.722;2022-09-09T07:41:11;8.25;;;2.28;;
54247;SDS011;40161;39.768;2.722;2022-09-09T07:43:40;8.85;;;2.03;;
54247;SDS011;40161;39.768;2.722;2022-09-09T07:46:07;4.85;;;1.70;;
54247;SDS011;40161;39.768;2.722;2022-09-09T07:48:34;6.55;;;1.70;;
54247;SDS011;40161;39.768;2.722;2022-09-09T07:51:07;5.13;;;1.90;;
54247;SDS011;40161;39.768;2.722;2022-09-09T07:56:57;2.97;;;1.30;;
54247;SDS011;40161;39.768;2.722;2022-09-09T08:06:07;24.40;;;19.00;;
54247;SDS011;40161;39.768;2.722;2022-09-09T08:08:34;22.15;;;17.58;;
54247;SDS011;40161;39.768;2.722;2022-09-09T08:11:04;9.30;;;5.93;;
54247;SDS011;40161;39.768;2.722;2022-09-09T08:13:32;5.75;;;2.50;;
54247;SDS011;40161;39.768;2.722;2022-09-09T08:16:08;5.38;;;1.90;;
54247;SDS011;40161;39.768;2.722;2022-09-09T08:18:39;5.43;;;2.40;;
54247;SDS011;40161;39.768;2.722;2022-09-09T08:21:05;5.10;;;2.38;;
54247;SDS011;40161;39.768;2.722;2022-09-09T08:23:38;4.43;;;1.52;;
54247;SDS011;40161;39.768;2.722;2022-09-09T08:26:09;4.40;;;1.80;;
54247;SDS011;40161;39.768;2.722;2022-09-09T08:28:40;4.72;;;1.80;;
54247;SDS011;40161;39.768;2.722;2022-09-09T08:31:13;5.95;;;1.98;;
54247;SDS011;40161;39.768;2.722;2022-09-09T08:33:44;4.22;;;2.13;;
54247;SDS011;40161;39.768;2.722;2022-09-09T08:36:14;4.80;;;1.75;;
54247;SDS011;40161;39.768;2.722;2022-09-09T08:38:42;6.88;;;2.10;;
54247;SDS011;40161;39.768;2.722;2022-09-09T08:43:52;5.05;;;1.52;;
54247;SDS011;40161;39.768;2.722;2022-09-09T08:46:32;5.85;;;1.80;;
54247;SDS011;40161;39.768;2.722;2022-09-09T08:51:48;5.93;;;1.63;;
54247;SDS011;40161;39.768;2.722;2022-09-09T08:54:15;4.00;;;1.75;;
54247;SDS011;40161;39.768;2.722;2022-09-09T08:56:42;4.90;;;1.50;;
54247;SDS011;40161;39.768;2.722;2022-09-09T08:59:07;5.72;;;1.75;;
54247;SDS011;40161;39.768;2.722;2022-09-09T09:12:22;7.10;;;4.63;;
54247;SDS011;40161;39.768;2.722;2022-09-09T09:14:49;5.63;;;1.80;;
54247;SDS011;40161;39.768;2.722;2022-09-09T09:17:17;7.07;;;1.77;;
54247;SDS011;40161;39.768;2.722;2022-09-09T09:19:47;3.58;;;1.38;;
54247;SDS011;40161;39.768;2.722;2022-09-09T09:30:00;5.53;;;1.80;;
54247;SDS011;40161;39.768;2.722;2022-09-09T09:32:31;5.55;;;1.50;;
54247;SDS011;40161;39.768;2.722;2022-09-09T09:34:59;5.80;;;1.50;;
54247;SDS011;40161;39.768;2.722;2022-09-09T09:37:33;5.53;;;1.65;;
54247;SDS011;40161;39.768;2.722;2022-09-09T09:40:16;5.35;;;1.70;;
54247;SDS011;40161;39.768;2.722;2022-09-09T09:42:51;3.40;;;1.60;;
54247;SDS011;40161;39.768;2.722;2022-09-09T09:45:43;4.03;;;1.63;;
54247;SDS011;40161;39.768;2.722;2022-09-09T09:48:11;6.20;;;1.60;;
54247;SDS011;40161;39.768;2.722;2022-09-09T09:50:48;4.50;;;1.50;;
54247;SDS011;40161;39.768;2.722;2022-09-09T09:53:36;5.25;;;1.50;;
54247;SDS011;40161;39.768;2.722;2022-09-09T09:56:05;3.75;;;1.40;;
54247;SDS011;40161;39.768;2.722;2022-09-09T09:58:35;7.15;;;1.70;;
54247;SDS011;40161;39.768;2.722;2022-09-09T10:04:01;5.53;;;1.52;;
54247;SDS011;40161;39.768;2.722;2022-09-09T10:06:40;4.43;;;1.40;;
54247;SDS011;40161;39.768;2.722;2022-09-09T10:12:12;5.80;;;1.52;;
54247;SDS011;40161;39.768;2.722;2022-09-09T10:17:36;5.90;;;1.50;;
54247;SDS011;40161;39.768;2.722;2022-09-09T10:20:27;4.35;;;1.75;;
54247;SDS011;40161;39.768;2.722;2022-09-09T10:23:19;3.85;;;1.50;;
54247;SDS011;40161;39.768;2.722;2022-09-09T10:38:40;4.80;;;1.38;;
54247;SDS011;40161;39.768;2.722;2022-09-09T10:41:19;7.85;;;1.52;;
54247;SDS011;40161;39.768;2.722;2022-09-09T10:49:57;5.50;;;1.50;;
54247;SDS011;40161;39.768;2.722;2022-09-09T10:55:09;5.32;;;1.30;;
54247;SDS011;40161;39.768;2.722;2022-09-09T10:57:48;6.95;;;1.30;;
54247;SDS011;40161;39.768;2.722;2022-09-09T11:00:20;4.50;;;1.45;;
54247;SDS011;40161;39.768;2.722;2022-09-09T11:03:06;7.90;;;1.80;;
54247;SDS011;40161;39.768;2.722;2022-09-09T11:05:46;4.07;;;1.58;;
54247;SDS011;40161;39.768;2.722;2022-09-09T11:08:31;4.22;;;1.35;;
54247;SDS011;40161;39.768;2.722;2022-09-09T11:18:44;6.60;;;1.67;;
54247;SDS011;40161;39.768;2.722;2022-09-09T11:24:02;5.70;;;1.75;;
54247;SDS011;40161;39.768;2.722;2022-09-09T11:26:45;4.30;;;1.55;;
54247;SDS011;40161;39.768;2.722;2022-09-09T11:35:26;7.25;;;1.50;;
54247;SDS011;40161;39.768;2.722;2022-09-09T11:41:07;5.57;;;1.48;;
54247;SDS011;40161;39.768;2.722;2022-09-09T11:46:14;5.85;;;1.30;;
54247;SDS011;40161;39.768;2.722;2022-09-09T11:48:43;3.58;;;1.20;;
54247;SDS011;40161;39.768;2.722;2022-09-09T11:51:27;4.97;;;1.20;;
54247;SDS011;40161;39.768;2.722;2022-09-09T11:54:02;5.72;;;1.48;;
54247;SDS011;40161;39.768;2.722;2022-09-09T12:04:28;5.75;;;1.33;;
54247;SDS011;40161;39.768;2.722;2022-09-09T12:06:58;4.88;;;1.40;;
54247;SDS011;40161;39.768;2.722;2022-09-09T12:09:29;3.65;;;1.35;;
54247;SDS011;40161;39.768;2.722;2022-09-09T12:15:01;7.30;;;1.70;;
54247;SDS011;40161;39.768;2.722;2022-09-09T12:17:55;5.95;;;2.05;;
54247;SDS011;40161;39.768;2.722;2022-09-09T12:23:09;3.67;;;1.50;;
54247;SDS011;40161;39.768;2.722;2022-09-09T12:29:01;4.38;;;1.50;;
54247;SDS011;40161;39.768;2.722;2022-09-09T12:34:14;4.50;;;1.15;;
54247;SDS011;40161;39.768;2.722;2022-09-09T12:36:43;4.65;;;1.38;;
54247;SDS011;40161;39.768;2.722;2022-09-09T12:39:18;4.75;;;1.38;;
54247;SDS011;40161;39.768;2.722;2022-09-09T12:41:53;4.57;;;1.30;;
54247;SDS011;40161;39.768;2.722;2022-09-09T12:44:21;4.95;;;1.70;;
54247;SDS011;40161;39.768;2.722;2022-09-09T12:46:48;7.93;;;1.50;;
54247;SDS011;40161;39.768;2.722;2022-09-09T12:49:24;6.18;;;1.35;;
54247;SDS011;40161;39.768;2.722;2022-09-09T12:51:51;4.60;;;1.40;;
54247;SDS011;40161;39.768;2.722;2022-09-09T12:54:17;3.45;;;1.30;;
54247;SDS011;40161;39.768;2.722;2022-09-09T12:56:47;4.32;;;1.45;;
54247;SDS011;40161;39.768;2.722;2022-09-09T12:59:25;4.72;;;1.50;;
54247;SDS011;40161;39.768;2.722;2022-09-09T13:02:00;5.95;;;1.40;;
54247;SDS011;40161;39.768;2.722;2022-09-09T13:04:25;3.92;;;1.40;;
54247;SDS011;40161;39.768;2.722;2022-09-09T13:06:51;5.32;;;1.42;;
54247;SDS011;40161;39.768;2.722;2022-09-09T13:09:17;3.97;;;1.20;;
54247;SDS011;40161;39.768;2.722;2022-09-09T13:11:53;5.13;;;1.40;;
54247;SDS011;40161;39.768;2.722;2022-09-09T13:14:34;3.20;;;1.20;;
54247;SDS011;40161;39.768;2.722;2022-09-09T13:17:03;3.33;;;1.23;;
54247;SDS011;40161;39.768;2.722;2022-09-09T13:19:31;4.20;;;1.40;;
54247;SDS011;40161;39.768;2.722;2022-09-09T13:22:10;8.23;;;1.38;;
54247;SDS011;40161;39.768;2.722;2022-09-09T13:24:38;3.88;;;1.30;;
54247;SDS011;40161;39.768;2.722;2022-09-09T13:27:05;4.43;;;1.33;;
54247;SDS011;40161;39.768;2.722;2022-09-09T13:29:52;5.32;;;1.40;;
54247;SDS011;40161;39.768;2.722;2022-09-09T13:32:22;4.97;;;1.33;;
54247;SDS011;40161;39.768;2.722;2022-09-09T13:34:53;3.00;;;1.25;;
54247;SDS011;40161;39.768;2.722;2022-09-09T13:37:34;4.25;;;1.40;;
54247;SDS011;40161;39.768;2.722;2022-09-09T13:43:27;5.10;;;1.38;;
54247;SDS011;40161;39.768;2.722;2022-09-09T13:46:02;4.38;;;1.17;;
54247;SDS011;40161;39.768;2.722;2022-09-09T13:51:51;4.18;;;1.50;;
54247;SDS011;40161;39.768;2.722;2022-09-09T13:54:19;5.82;;;1.40;;
54247;SDS011;40161;39.768;2.722;2022-09-09T13:56:45;4.55;;;1.10;;
54247;SDS011;40161;39.768;2.722;2022-09-09T13:59:12;2.65;;;1.00;;
54247;SDS011;40161;39.768;2.722;2022-09-09T14:01:39;4.13;;;1.45;;
54247;SDS011;40161;39.768;2.722;2022-09-09T14:04:06;4.05;;;1.17;;
54247;SDS011;40161;39.768;2.722;2022-09-09T14:06:34;5.50;;;1.20;;
54247;SDS011;40161;39.768;2.722;2022-09-09T14:09:03;4.90;;;1.60;;
54247;SDS011;40161;39.768;2.722;2022-09-09T14:11:31;5.70;;;1.35;;
54247;SDS011;40161;39.768;2.722;2022-09-09T14:13:57;4.43;;;1.25;;
54247;SDS011;40161;39.768;2.722;2022-09-09T14:16:23;4.25;;;1.15;;
54247;SDS011;40161;39.768;2.722;2022-09-09T14:18:48;4.00;;;1.30;;
54247;SDS011;40161;39.768;2.722;2022-09-09T14:21:14;4.68;;;1.10;;
54247;SDS011;40161;39.768;2.722;2022-09-09T14:23:40;6.43;;;1.45;;
54247;SDS011;40161;39.768;2.722;2022-09-09T14:26:06;4.97;;;1.10;;
54247;SDS011;40161;39.768;2.722;2022-09-09T14:28:33;5.57;;;1.27;;
54247;SDS011;40161;39.768;2.722;2022-09-09T14:31:00;4.68;;;1.38;;
54247;SDS011;40161;39.768;2.722;2022-09-09T14:33:26;5.03;;;1.60;;
54247;SDS011;40161;39.768;2.722;2022-09-09T14:35:57;5.38;;;1.33;;
54247;SDS011;40161;39.768;2.722;2022-09-09T14:38:24;3.20;;;1.10;;
54247;SDS011;40161;39.768;2.722;2022-09-09T14:40:50;4.22;;;1.48;;
54247;SDS011;40161;39.768;2.722;2022-09-09T14:43:16;5.60;;;1.40;;
54247;SDS011;40161;39.768;2.722;2022-09-09T14:45:41;8.18;;;1.40;;
54247;SDS011;40161;39.768;2.722;2022-09-09T14:48:08;5.35;;;1.10;;
54247;SDS011;40161;39.768;2.722;2022-09-09T14:50:34;5.35;;;1.40;;
54247;SDS011;40161;39.768;2.722;2022-09-09T14:53:01;4.43;;;1.30;;
54247;SDS011;40161;39.768;2.722;2022-09-09T14:55:27;5.47;;;1.55;;
54247;SDS011;40161;39.768;2.722;2022-09-09T14:58:04;8.25;;;1.80;;
54247;SDS011;40161;39.768;2.722;2022-09-09T15:00:31;4.38;;;1.20;;
54247;SDS011;40161;39.768;2.722;2022-09-09T15:02:57;4.47;;;1.15;;
54247;SDS011;40161;39.768;2.722;2022-09-09T15:05:24;4.65;;;1.23;;
54247;SDS011;40161;39.768;2.722;2022-09-09T15:07:50;4.13;;;1.42;;
54247;SDS011;40161;39.768;2.722;2022-09-09T15:10:15;5.13;;;1.30;;
54247;SDS011;40161;39.768;2.722;2022-09-09T15:12:42;4.22;;;1.10;;
54247;SDS011;40161;39.768;2.722;2022-09-09T15:15:08;4.57;;;1.65;;
54247;SDS011;40161;39.768;2.722;2022-09-09T15:17:34;4.25;;;1.20;;
54247;SDS011;40161;39.768;2.722;2022-09-09T15:20:01;4.35;;;1.50;;
54247;SDS011;40161;39.768;2.722;2022-09-09T15:22:33;3.72;;;1.15;;
54247;SDS011;40161;39.768;2.722;2022-09-09T15:25:01;6.28;;;1.27;;
54247;SDS011;40161;39.768;2.722;2022-09-09T15:27:26;4.78;;;1.10;;
54247;SDS011;40161;39.768;2.722;2022-09-09T15:29:52;3.50;;;1.10;;
54247;SDS011;40161;39.768;2.722;2022-09-09T15:32:18;4.88;;;1.58;;
54247;SDS011;40161;39.768;2.722;2022-09-09T15:34:43;3.60;;;1.40;;
54247;SDS011;40161;39.768;2.722;2022-09-09T15:37:10;4.68;;;1.40;;
54247;SDS011;40161;39.768;2.722;2022-09-09T15:39:38;3.10;;;1.30;;
54247;SDS011;40161;39.768;2.722;2022-09-09T15:42:04;3.42;;;1.17;;
54247;SDS011;40161;39.768;2.722;2022-09-09T15:44:29;4.93;;;1.40;;
54247;SDS011;40161;39.768;2.722;2022-09-09T15:47:03;4.80;;;1.20;;
54247;SDS011;40161;39.768;2.722;2022-09-09T15:49:29;6.00;;;1.20;;
54247;SDS011;40161;39.768;2.722;2022-09-09T15:51:55;6.13;;;1.30;;
54247;SDS011;40161;39.768;2.722;2022-09-09T15:54:30;4.13;;;1.13;;
54247;SDS011;40161;39.768;2.722;2022-09-09T15:56:58;3.47;;;1.15;;
54247;SDS011;40161;39.768;2.722;2022-09-09T15:59:26;3.40;;;1.15;;
54247;SDS011;40161;39.768;2.722;2022-09-09T16:01:53;3.42;;;1.10;;
54247;SDS011;40161;39.768;2.722;2022-09-09T16:04:20;6.20;;;1.23;;
54247;SDS011;40161;39.768;2.722;2022-09-09T16:06:50;4.00;;;1.20;;
54247;SDS011;40161;39.768;2.722;2022-09-09T16:09:20;5.28;;;1.10;;
54247;SDS011;40161;39.768;2.722;2022-09-09T16:11:46;3.63;;;1.20;;
54247;SDS011;40161;39.768;2.722;2022-09-09T16:14:12;2.97;;;1.27;;
54247;SDS011;40161;39.768;2.722;2022-09-09T16:16:40;5.70;;;1.27;;
54247;SDS011;40161;39.768;2.722;2022-09-09T16:19:07;4.72;;;1.45;;
54247;SDS011;40161;39.768;2.722;2022-09-09T16:21:36;4.60;;;1.55;;
54247;SDS011;40161;39.768;2.722;2022-09-09T16:24:05;3.35;;;1.05;;
54247;SDS011;40161;39.768;2.722;2022-09-09T16:26:32;6.30;;;1.42;;
54247;SDS011;40161;39.768;2.722;2022-09-09T16:32:21;6.40;;;1.45;;
54247;SDS011;40161;39.768;2.722;2022-09-09T16:34:49;3.80;;;1.13;;
54247;SDS011;40161;39.768;2.722;2022-09-09T16:37:15;5.55;;;1.30;;
54247;SDS011;40161;39.768;2.722;2022-09-09T16:39:40;4.47;;;1.45;;
54247;SDS011;40161;39.768;2.722;2022-09-09T16:42:06;5.28;;;1.40;;
54247;SDS011;40161;39.768;2.722;2022-09-09T16:44:31;5.00;;;1.35;;
54247;SDS011;40161;39.768;2.722;2022-09-09T16:46:57;3.75;;;1.20;;
54247;SDS011;40161;39.768;2.722;2022-09-09T16:49:23;2.85;;;1.02;;
54247;SDS011;40161;39.768;2.722;2022-09-09T16:51:49;3.63;;;1.23;;
54247;SDS011;40161;39.768;2.722;2022-09-09T16:54:18;6.25;;;1.50;;
54247;SDS011;40161;39.768;2.722;2022-09-09T16:56:46;3.38;;;1.38;;
54247;SDS011;40161;39.768;2.722;2022-09-09T16:59:16;3.92;;;1.23;;
54247;SDS011;40161;39.768;2.722;2022-09-09T17:01:44;3.00;;;1.23;;
54247;SDS011;40161;39.768;2.722;2022-09-09T17:04:15;5.50;;;1.33;;
54247;SDS011;40161;39.768;2.722;2022-09-09T17:06:45;5.57;;;1.33;;
54247;SDS011;40161;39.768;2.722;2022-09-09T17:09:12;4.40;;;1.48;;
54247;SDS011;40161;39.768;2.722;2022-09-09T17:11:38;6.38;;;1.63;;
54247;SDS011;40161;39.768;2.722;2022-09-09T17:14:04;6.55;;;1.35;;
54247;SDS011;40161;39.768;2.722;2022-09-09T17:16:33;4.30;;;1.25;;
54247;SDS011;40161;39.768;2.722;2022-09-09T17:18:59;6.05;;;1.30;;
54247;SDS011;40161;39.768;2.722;2022-09-09T17:21:27;6.47;;;1.40;;
54247;SDS011;40161;39.768;2.722;2022-09-09T17:23:53;3.58;;;1.20;;
54247;SDS011;40161;39.768;2.722;2022-09-09T17:26:20;4.10;;;1.17;;
54247;SDS011;40161;39.768;2.722;2022-09-09T17:28:47;6.13;;;1.20;;
54247;SDS011;40161;39.768;2.722;2022-09-09T17:31:14;4.63;;;1.50;;
54247;SDS011;40161;39.768;2.722;2022-09-09T17:33:43;4.03;;;1.20;;
54247;SDS011;40161;39.768;2.722;2022-09-09T17:36:15;4.75;;;1.40;;
54247;SDS011;40161;39.768;2.722;2022-09-09T17:44:29;5.38;;;1.20;;